sensor_id;sensor_type;location;lat;lon;timestamp;temperature;humidity
36450;DHT22;22475;51.390;7.180;2023-04-03T00:01:39;11.40;86.80
36450;DHT22;22475;51.390;7.180;2023-04-03T00:04:05;11.40;86.80
36450;DHT22;22475;51.390;7.180;2023-04-03T00:06:32;11.30;86.70
36450;DHT22;22475;51.390;7.180;2023-04-03T00:09:00;11.40;86.80
36450;DHT22;22475;51.390;7.180;2023-04-03T00:11:27;11.30;86.70
36450;DHT22;22475;51.390;7.180;2023-04-03T00:13:53;11.30;86.60
36450;DHT22;22475;51.390;7.180;2023-04-03T00:16:22;11.30;86.70
36450;DHT22;22475;51.390;7.180;2023-04-03T00:18:48;11.30;86.60
36450;DHT22;22475;51.390;7.180;2023-04-03T00:21:15;11.30;86.60
36450;DHT22;22475;51.390;7.180;2023-04-03T00:23:42;11.30;86.60
36450;DHT22;22475;51.390;7.180;2023-04-03T00:26:09;11.30;86.50
36450;DHT22;22475;51.390;7.180;2023-04-03T00:28:35;11.30;86.40
36450;DHT22;22475;51.390;7.180;2023-04-03T00:31:03;11.30;86.30
36450;DHT22;22475;51.390;7.180;2023-04-03T00:33:31;11.30;86.20
36450;DHT22;22475;51.390;7.180;2023-04-03T00:35:58;11.30;86.20
36450;DHT22;22475;51.390;7.180;2023-04-03T00:38:24;11.20;86.10
36450;DHT22;22475;51.390;7.180;2023-04-03T00:40:51;11.20;86.10
36450;DHT22;22475;51.390;7.180;2023-04-03T00:43:20;11.20;86.20
36450;DHT22;22475;51.390;7.180;2023-04-03T00:45:48;11.20;86.20
36450;DHT22;22475;51.390;7.180;2023-04-03T00:48:18;11.20;86.30
36450;DHT22;22475;51.390;7.180;2023-04-03T00:50:48;11.20;86.30
36450;DHT22;22475;51.390;7.180;2023-04-03T00:53:18;11.20;86.40
36450;DHT22;22475;51.390;7.180;2023-04-03T00:55:46;11.20;86.40
36450;DHT22;22475;51.390;7.180;2023-04-03T00:58:14;11.20;86.40
36450;DHT22;22475;51.390;7.180;2023-04-03T01:00:48;11.20;86.30
36450;DHT22;22475;51.390;7.180;2023-04-03T01:03:17;11.20;86.40
36450;DHT22;22475;51.390;7.180;2023-04-03T01:05:43;11.20;86.50
36450;DHT22;22475;51.390;7.180;2023-04-03T01:08:12;11.20;86.50
36450;DHT22;22475;51.390;7.180;2023-04-03T01:10:38;11.20;86.40
36450;DHT22;22475;51.390;7.180;2023-04-03T01:13:19;11.20;86.50
36450;DHT22;22475;51.390;7.180;2023-04-03T01:15:46;11.20;86.40
36450;DHT22;22475;51.390;7.180;2023-04-03T01:18:13;11.20;86.40
36450;DHT22;22475;51.390;7.180;2023-04-03T01:21:01;11.20;86.40
36450;DHT22;22475;51.390;7.180;2023-04-03T01:23:42;11.20;86.20
36450;DHT22;22475;51.390;7.180;2023-04-03T01:26:14;11.10;86.10
36450;DHT22;22475;51.390;7.180;2023-04-03T01:28:41;11.10;86.10
36450;DHT22;22475;51.390;7.180;2023-04-03T01:31:14;11.10;86.10
36450;DHT22;22475;51.390;7.180;2023-04-03T01:33:43;11.10;86.00
36450;DHT22;22475;51.390;7.180;2023-04-03T01:36:14;11.10;86.10
36450;DHT22;22475;51.390;7.180;2023-04-03T01:38:41;11.10;86.10
36450;DHT22;22475;51.390;7.180;2023-04-03T01:41:08;11.10;86.20
36450;DHT22;22475;51.390;7.180;2023-04-03T01:43:35;11.10;86.10
36450;DHT22;22475;51.390;7.180;2023-04-03T01:46:02;11.10;86.20
36450;DHT22;22475;51.390;7.180;2023-04-03T01:48:29;11.10;86.20
36450;DHT22;22475;51.390;7.180;2023-04-03T01:50:57;11.10;86.30
36450;DHT22;22475;51.390;7.180;2023-04-03T01:53:24;11.10;86.30
36450;DHT22;22475;51.390;7.180;2023-04-03T01:55:50;11.00;86.20
36450;DHT22;22475;51.390;7.180;2023-04-03T01:58:17;11.10;86.20
36450;DHT22;22475;51.390;7.180;2023-04-03T02:00:44;11.10;86.10
36450;DHT22;22475;51.390;7.180;2023-04-03T02:03:11;11.00;86.00
36450;DHT22;22475;51.390;7.180;2023-04-03T02:05:38;11.10;86.10
36450;DHT22;22475;51.390;7.180;2023-04-03T02:08:06;11.00;86.00
36450;DHT22;22475;51.390;7.180;2023-04-03T02:10:33;11.00;86.10
36450;DHT22;22475;51.390;7.180;2023-04-03T02:13:00;11.00;86.10
36450;DHT22;22475;51.390;7.180;2023-04-03T02:15:27;11.00;86.80
36450;DHT22;22475;51.390;7.180;2023-04-03T02:17:53;11.00;86.00
36450;DHT22;22475;51.390;7.180;2023-04-03T02:20:20;11.00;86.10
36450;DHT22;22475;51.390;7.180;2023-04-03T02:22:47;11.00;86.20
36450;DHT22;22475;51.390;7.180;2023-04-03T02:25:16;11.00;86.20
36450;DHT22;22475;51.390;7.180;2023-04-03T02:27:43;11.00;86.00
36450;DHT22;22475;51.390;7.180;2023-04-03T02:30:11;11.00;86.70
36450;DHT22;22475;51.390;7.180;2023-04-03T02:32:39;11.00;85.90
36450;DHT22;22475;51.390;7.180;2023-04-03T02:35:06;11.00;85.90
36450;DHT22;22475;51.390;7.180;2023-04-03T02:37:33;11.00;85.80
36450;DHT22;22475;51.390;7.180;2023-04-03T02:40:00;11.00;85.80
36450;DHT22;22475;51.390;7.180;2023-04-03T02:42:28;11.00;85.80
36450;DHT22;22475;51.390;7.180;2023-04-03T02:44:55;11.00;85.70
36450;DHT22;22475;51.390;7.180;2023-04-03T02:47:22;10.90;85.60
36450;DHT22;22475;51.390;7.180;2023-04-03T02:49:48;10.90;85.60
36450;DHT22;22475;51.390;7.180;2023-04-03T02:52:16;10.90;86.30
36450;DHT22;22475;51.390;7.180;2023-04-03T02:54:42;10.90;85.70
36450;DHT22;22475;51.390;7.180;2023-04-03T02:57:10;10.90;86.50
36450;DHT22;22475;51.390;7.180;2023-04-03T02:59:38;10.90;85.70
36450;DHT22;22475;51.390;7.180;2023-04-03T03:02:06;10.90;85.70
36450;DHT22;22475;51.390;7.180;2023-04-03T03:04:32;10.90;85.70
36450;DHT22;22475;51.390;7.180;2023-04-03T03:06:59;10.90;85.80
36450;DHT22;22475;51.390;7.180;2023-04-03T03:09:26;10.90;85.70
36450;DHT22;22475;51.390;7.180;2023-04-03T03:11:53;10.90;85.70
36450;DHT22;22475;51.390;7.180;2023-04-03T03:14:20;10.90;85.70
36450;DHT22;22475;51.390;7.180;2023-04-03T03:16:48;10.80;85.50
36450;DHT22;22475;51.390;7.180;2023-04-03T03:19:15;10.80;85.50
36450;DHT22;22475;51.390;7.180;2023-04-03T03:21:42;10.80;85.50
36450;DHT22;22475;51.390;7.180;2023-04-03T03:24:08;10.80;85.50
36450;DHT22;22475;51.390;7.180;2023-04-03T03:26:35;10.80;85.50
36450;DHT22;22475;51.390;7.180;2023-04-03T03:29:02;10.80;85.50
36450;DHT22;22475;51.390;7.180;2023-04-03T03:31:29;10.80;85.60
36450;DHT22;22475;51.390;7.180;2023-04-03T03:33:57;10.80;85.50
36450;DHT22;22475;51.390;7.180;2023-04-03T03:36:24;10.80;85.50
36450;DHT22;22475;51.390;7.180;2023-04-03T03:38:50;10.80;85.50
36450;DHT22;22475;51.390;7.180;2023-04-03T03:41:17;10.80;85.50
36450;DHT22;22475;51.390;7.180;2023-04-03T03:43:44;10.80;85.50
36450;DHT22;22475;51.390;7.180;2023-04-03T03:46:11;10.80;85.40
36450;DHT22;22475;51.390;7.180;2023-04-03T03:48:37;10.80;85.30
36450;DHT22;22475;51.390;7.180;2023-04-03T03:51:06;10.80;85.30
36450;DHT22;22475;51.390;7.180;2023-04-03T03:53:32;10.80;86.10
36450;DHT22;22475;51.390;7.180;2023-04-03T03:55:59;10.80;85.40
36450;DHT22;22475;51.390;7.180;2023-04-03T03:58:26;10.80;85.30
36450;DHT22;22475;51.390;7.180;2023-04-03T04:00:53;10.80;85.30
36450;DHT22;22475;51.390;7.180;2023-04-03T04:03:19;10.70;85.30
36450;DHT22;22475;51.390;7.180;2023-04-03T04:05:46;10.70;85.20
36450;DHT22;22475;51.390;7.180;2023-04-03T04:08:14;10.80;85.30
36450;DHT22;22475;51.390;7.180;2023-04-03T04:10:41;10.80;85.20
36450;DHT22;22475;51.390;7.180;2023-04-03T04:13:08;10.80;86.00
36450;DHT22;22475;51.390;7.180;2023-04-03T04:15:35;10.70;85.10
36450;DHT22;22475;51.390;7.180;2023-04-03T04:18:01;10.80;85.20
36450;DHT22;22475;51.390;7.180;2023-04-03T04:20:28;10.70;85.10
36450;DHT22;22475;51.390;7.180;2023-04-03T04:22:55;10.70;85.10
36450;DHT22;22475;51.390;7.180;2023-04-03T04:25:23;10.70;85.00
36450;DHT22;22475;51.390;7.180;2023-04-03T04:27:50;10.70;85.00
36450;DHT22;22475;51.390;7.180;2023-04-03T04:30:17;10.70;85.00
36450;DHT22;22475;51.390;7.180;2023-04-03T04:32:44;10.70;85.00
36450;DHT22;22475;51.390;7.180;2023-04-03T04:35:11;10.70;85.00
36450;DHT22;22475;51.390;7.180;2023-04-03T04:37:37;10.70;85.00
36450;DHT22;22475;51.390;7.180;2023-04-03T04:40:05;10.70;85.00
36450;DHT22;22475;51.390;7.180;2023-04-03T04:42:34;10.70;85.00
36450;DHT22;22475;51.390;7.180;2023-04-03T04:45:00;10.70;84.90
36450;DHT22;22475;51.390;7.180;2023-04-03T04:47:28;10.70;84.80
36450;DHT22;22475;51.390;7.180;2023-04-03T04:49:55;10.70;84.70
36450;DHT22;22475;51.390;7.180;2023-04-03T04:52:22;10.70;84.70
36450;DHT22;22475;51.390;7.180;2023-04-03T04:54:48;10.60;84.70
36450;DHT22;22475;51.390;7.180;2023-04-03T04:57:16;10.70;84.80
36450;DHT22;22475;51.390;7.180;2023-04-03T04:59:45;10.70;84.80
36450;DHT22;22475;51.390;7.180;2023-04-03T05:02:11;10.70;84.80
36450;DHT22;22475;51.390;7.180;2023-04-03T05:04:38;10.70;84.80
36450;DHT22;22475;51.390;7.180;2023-04-03T05:07:05;10.70;84.80
36450;DHT22;22475;51.390;7.180;2023-04-03T05:09:32;10.70;84.80
36450;DHT22;22475;51.390;7.180;2023-04-03T05:11:58;10.70;85.00
36450;DHT22;22475;51.390;7.180;2023-04-03T05:14:25;10.60;84.80
36450;DHT22;22475;51.390;7.180;2023-04-03T05:16:53;10.60;84.70
36450;DHT22;22475;51.390;7.180;2023-04-03T05:19:20;10.60;84.70
36450;DHT22;22475;51.390;7.180;2023-04-03T05:21:48;10.70;84.70
36450;DHT22;22475;51.390;7.180;2023-04-03T05:24:15;10.60;84.60
36450;DHT22;22475;51.390;7.180;2023-04-03T05:26:42;10.60;84.60
36450;DHT22;22475;51.390;7.180;2023-04-03T05:29:09;10.60;84.60
36450;DHT22;22475;51.390;7.180;2023-04-03T05:31:36;10.60;84.60
36450;DHT22;22475;51.390;7.180;2023-04-03T05:34:04;10.60;84.70
36450;DHT22;22475;51.390;7.180;2023-04-03T05:36:31;10.60;84.60
36450;DHT22;22475;51.390;7.180;2023-04-03T05:38:58;10.60;84.70
36450;DHT22;22475;51.390;7.180;2023-04-03T05:41:24;10.60;84.80
36450;DHT22;22475;51.390;7.180;2023-04-03T05:43:51;10.60;84.70
36450;DHT22;22475;51.390;7.180;2023-04-03T05:46:19;10.60;84.60
36450;DHT22;22475;51.390;7.180;2023-04-03T05:48:46;10.60;84.60
36450;DHT22;22475;51.390;7.180;2023-04-03T05:51:17;10.60;84.60
36450;DHT22;22475;51.390;7.180;2023-04-03T05:53:44;10.60;84.60
36450;DHT22;22475;51.390;7.180;2023-04-03T05:56:13;10.60;84.70
36450;DHT22;22475;51.390;7.180;2023-04-03T05:58:40;10.60;84.80
36450;DHT22;22475;51.390;7.180;2023-04-03T06:01:07;10.60;85.00
36450;DHT22;22475;51.390;7.180;2023-04-03T06:03:33;10.60;85.00
36450;DHT22;22475;51.390;7.180;2023-04-03T06:06:03;10.60;85.10
36450;DHT22;22475;51.390;7.180;2023-04-03T06:08:31;10.60;85.10
36450;DHT22;22475;51.390;7.180;2023-04-03T06:10:59;10.60;85.30
36450;DHT22;22475;51.390;7.180;2023-04-03T06:13:30;10.60;85.30
36450;DHT22;22475;51.390;7.180;2023-04-03T06:15:57;10.60;85.40
36450;DHT22;22475;51.390;7.180;2023-04-03T06:18:24;10.70;85.40
36450;DHT22;22475;51.390;7.180;2023-04-03T06:20:50;10.70;85.40
36450;DHT22;22475;51.390;7.180;2023-04-03T06:23:17;10.70;85.50
36450;DHT22;22475;51.390;7.180;2023-04-03T06:25:45;10.70;85.70
36450;DHT22;22475;51.390;7.180;2023-04-03T06:28:12;10.70;85.80
36450;DHT22;22475;51.390;7.180;2023-04-03T06:30:39;10.70;85.80
36450;DHT22;22475;51.390;7.180;2023-04-03T06:33:06;10.70;85.80
36450;DHT22;22475;51.390;7.180;2023-04-03T06:35:33;10.70;86.10
36450;DHT22;22475;51.390;7.180;2023-04-03T06:38:00;10.70;86.20
36450;DHT22;22475;51.390;7.180;2023-04-03T06:40:29;10.70;86.20
36450;DHT22;22475;51.390;7.180;2023-04-03T06:42:57;10.70;86.20
36450;DHT22;22475;51.390;7.180;2023-04-03T06:45:24;10.70;86.30
36450;DHT22;22475;51.390;7.180;2023-04-03T06:47:51;10.70;86.40
36450;DHT22;22475;51.390;7.180;2023-04-03T06:50:18;10.70;86.40
36450;DHT22;22475;51.390;7.180;2023-04-03T06:52:45;10.70;86.30
36450;DHT22;22475;51.390;7.180;2023-04-03T06:55:11;10.70;86.30
36450;DHT22;22475;51.390;7.180;2023-04-03T06:57:38;10.80;86.30
36450;DHT22;22475;51.390;7.180;2023-04-03T07:00:07;10.80;86.30
36450;DHT22;22475;51.390;7.180;2023-04-03T07:02:35;10.70;86.30
36450;DHT22;22475;51.390;7.180;2023-04-03T07:05:02;10.80;86.50
36450;DHT22;22475;51.390;7.180;2023-04-03T07:07:29;10.80;86.60
36450;DHT22;22475;51.390;7.180;2023-04-03T07:09:56;10.80;86.70
36450;DHT22;22475;51.390;7.180;2023-04-03T07:12:22;10.80;86.60
36450;DHT22;22475;51.390;7.180;2023-04-03T07:14:49;10.80;86.70
36450;DHT22;22475;51.390;7.180;2023-04-03T07:17:17;10.80;86.80
36450;DHT22;22475;51.390;7.180;2023-04-03T07:19:44;10.80;86.70
36450;DHT22;22475;51.390;7.180;2023-04-03T07:22:11;10.80;86.80
36450;DHT22;22475;51.390;7.180;2023-04-03T07:24:37;10.80;86.70
36450;DHT22;22475;51.390;7.180;2023-04-03T07:27:04;10.70;86.50
36450;DHT22;22475;51.390;7.180;2023-04-03T07:29:31;10.70;86.40
36450;DHT22;22475;51.390;7.180;2023-04-03T07:31:58;10.70;86.20
36450;DHT22;22475;51.390;7.180;2023-04-03T07:34:26;10.80;86.10
36450;DHT22;22475;51.390;7.180;2023-04-03T07:36:53;10.80;86.20
36450;DHT22;22475;51.390;7.180;2023-04-03T07:39:20;10.70;86.10
36450;DHT22;22475;51.390;7.180;2023-04-03T07:41:47;10.80;86.10
36450;DHT22;22475;51.390;7.180;2023-04-03T07:44:13;10.70;85.80
36450;DHT22;22475;51.390;7.180;2023-04-03T07:46:40;10.70;85.50
36450;DHT22;22475;51.390;7.180;2023-04-03T07:49:08;10.70;85.30
36450;DHT22;22475;51.390;7.180;2023-04-03T07:51:36;10.70;85.40
36450;DHT22;22475;51.390;7.180;2023-04-03T07:54:03;10.70;85.40
36450;DHT22;22475;51.390;7.180;2023-04-03T07:56:30;10.70;85.70
36450;DHT22;22475;51.390;7.180;2023-04-03T07:58:57;10.70;85.80
36450;DHT22;22475;51.390;7.180;2023-04-03T08:01:23;10.70;85.90
36450;DHT22;22475;51.390;7.180;2023-04-03T08:03:50;10.70;85.80
36450;DHT22;22475;51.390;7.180;2023-04-03T08:06:17;10.70;85.50
36450;DHT22;22475;51.390;7.180;2023-04-03T08:08:45;10.70;85.50
36450;DHT22;22475;51.390;7.180;2023-04-03T08:11:12;10.80;85.50
36450;DHT22;22475;51.390;7.180;2023-04-03T08:13:39;10.70;85.10
36450;DHT22;22475;51.390;7.180;2023-04-03T08:16:08;10.70;85.00
36450;DHT22;22475;51.390;7.180;2023-04-03T08:18:35;10.80;85.40
36450;DHT22;22475;51.390;7.180;2023-04-03T08:21:06;10.80;85.50
36450;DHT22;22475;51.390;7.180;2023-04-03T08:23:32;10.80;85.30
36450;DHT22;22475;51.390;7.180;2023-04-03T08:26:05;10.80;85.20
36450;DHT22;22475;51.390;7.180;2023-04-03T08:28:32;10.80;85.30
36450;DHT22;22475;51.390;7.180;2023-04-03T08:31:03;10.80;85.30
36450;DHT22;22475;51.390;7.180;2023-04-03T08:33:31;10.80;85.10
36450;DHT22;22475;51.390;7.180;2023-04-03T08:35:59;10.80;85.00
36450;DHT22;22475;51.390;7.180;2023-04-03T08:38:26;10.80;84.90
36450;DHT22;22475;51.390;7.180;2023-04-03T08:41:04;10.80;85.10
36450;DHT22;22475;51.390;7.180;2023-04-03T08:43:37;10.80;85.10
36450;DHT22;22475;51.390;7.180;2023-04-03T08:46:11;10.80;85.20
36450;DHT22;22475;51.390;7.180;2023-04-03T08:48:41;10.80;85.20
36450;DHT22;22475;51.390;7.180;2023-04-03T08:51:12;10.80;85.20
36450;DHT22;22475;51.390;7.180;2023-04-03T08:53:42;10.80;85.10
36450;DHT22;22475;51.390;7.180;2023-04-03T08:56:12;10.80;85.10
36450;DHT22;22475;51.390;7.180;2023-04-03T08:58:47;10.80;84.80
36450;DHT22;22475;51.390;7.180;2023-04-03T09:01:19;10.80;84.50
36450;DHT22;22475;51.390;7.180;2023-04-03T09:03:46;10.80;84.50
36450;DHT22;22475;51.390;7.180;2023-04-03T09:06:15;10.80;84.40
36450;DHT22;22475;51.390;7.180;2023-04-03T09:08:49;10.80;84.50
36450;DHT22;22475;51.390;7.180;2023-04-03T09:11:22;10.80;84.60
36450;DHT22;22475;51.390;7.180;2023-04-03T09:13:56;10.80;84.70
36450;DHT22;22475;51.390;7.180;2023-04-03T09:16:36;10.90;84.80
36450;DHT22;22475;51.390;7.180;2023-04-03T09:19:12;10.90;84.70
36450;DHT22;22475;51.390;7.180;2023-04-03T09:21:42;10.90;85.00
36450;DHT22;22475;51.390;7.180;2023-04-03T09:24:11;10.90;85.40
36450;DHT22;22475;51.390;7.180;2023-04-03T09:26:43;11.00;85.30
36450;DHT22;22475;51.390;7.180;2023-04-03T09:29:16;11.00;84.90
36450;DHT22;22475;51.390;7.180;2023-04-03T09:31:44;10.90;84.50
36450;DHT22;22475;51.390;7.180;2023-04-03T09:34:17;10.90;84.20
36450;DHT22;22475;51.390;7.180;2023-04-03T09:36:48;10.90;84.10
36450;DHT22;22475;51.390;7.180;2023-04-03T09:39:17;10.90;84.10
36450;DHT22;22475;51.390;7.180;2023-04-03T09:42:00;10.90;84.10
36450;DHT22;22475;51.390;7.180;2023-04-03T09:44:29;11.00;84.50
36450;DHT22;22475;51.390;7.180;2023-04-03T09:46:56;10.90;84.70
36450;DHT22;22475;51.390;7.180;2023-04-03T09:49:24;11.00;84.50
36450;DHT22;22475;51.390;7.180;2023-04-03T09:51:50;10.90;84.00
36450;DHT22;22475;51.390;7.180;2023-04-03T09:54:31;11.00;84.00
36450;DHT22;22475;51.390;7.180;2023-04-03T09:57:03;10.90;83.60
36450;DHT22;22475;51.390;7.180;2023-04-03T09:59:31;11.00;83.80
36450;DHT22;22475;51.390;7.180;2023-04-03T10:02:00;10.90;83.70
36450;DHT22;22475;51.390;7.180;2023-04-03T10:04:38;11.00;83.80
36450;DHT22;22475;51.390;7.180;2023-04-03T10:07:28;11.00;84.30
36450;DHT22;22475;51.390;7.180;2023-04-03T10:09:56;11.00;84.60
36450;DHT22;22475;51.390;7.180;2023-04-03T10:12:23;11.10;84.60
36450;DHT22;22475;51.390;7.180;2023-04-03T10:14:55;11.10;84.50
36450;DHT22;22475;51.390;7.180;2023-04-03T10:17:37;11.10;84.10
36450;DHT22;22475;51.390;7.180;2023-04-03T10:20:15;11.10;83.80
36450;DHT22;22475;51.390;7.180;2023-04-03T10:22:56;11.10;83.80
36450;DHT22;22475;51.390;7.180;2023-04-03T10:25:31;11.10;84.70
36450;DHT22;22475;51.390;7.180;2023-04-03T10:28:00;11.10;84.10
36450;DHT22;22475;51.390;7.180;2023-04-03T10:30:36;11.10;83.80
36450;DHT22;22475;51.390;7.180;2023-04-03T10:33:20;11.10;83.60
36450;DHT22;22475;51.390;7.180;2023-04-03T10:35:53;11.10;83.50
36450;DHT22;22475;51.390;7.180;2023-04-03T10:38:32;11.10;83.50
36450;DHT22;22475;51.390;7.180;2023-04-03T10:41:04;11.10;83.30
36450;DHT22;22475;51.390;7.180;2023-04-03T10:43:41;11.10;83.20
36450;DHT22;22475;51.390;7.180;2023-04-03T10:46:13;11.10;83.30
36450;DHT22;22475;51.390;7.180;2023-04-03T10:48:54;11.10;83.40
36450;DHT22;22475;51.390;7.180;2023-04-03T10:51:29;11.20;83.20
36450;DHT22;22475;51.390;7.180;2023-04-03T10:54:03;11.10;82.80
36450;DHT22;22475;51.390;7.180;2023-04-03T10:56:35;11.10;82.90
36450;DHT22;22475;51.390;7.180;2023-04-03T10:59:16;11.20;83.10
36450;DHT22;22475;51.390;7.180;2023-04-03T11:01:46;11.10;83.30
36450;DHT22;22475;51.390;7.180;2023-04-03T11:04:15;11.20;83.50
36450;DHT22;22475;51.390;7.180;2023-04-03T11:06:45;11.10;83.50
36450;DHT22;22475;51.390;7.180;2023-04-03T11:09:22;11.10;83.40
36450;DHT22;22475;51.390;7.180;2023-04-03T11:11:53;11.10;83.10
36450;DHT22;22475;51.390;7.180;2023-04-03T11:14:26;11.20;83.70
36450;DHT22;22475;51.390;7.180;2023-04-03T11:17:02;11.10;82.90
36450;DHT22;22475;51.390;7.180;2023-04-03T11:19:35;11.10;82.90
36450;DHT22;22475;51.390;7.180;2023-04-03T11:22:09;11.10;83.00
36450;DHT22;22475;51.390;7.180;2023-04-03T11:24:41;11.10;83.10
36450;DHT22;22475;51.390;7.180;2023-04-03T11:27:15;11.20;83.00
36450;DHT22;22475;51.390;7.180;2023-04-03T11:29:45;11.20;83.20
36450;DHT22;22475;51.390;7.180;2023-04-03T11:32:29;11.20;83.50
36450;DHT22;22475;51.390;7.180;2023-04-03T11:35:01;11.20;83.90
36450;DHT22;22475;51.390;7.180;2023-04-03T11:37:33;11.20;84.20
36450;DHT22;22475;51.390;7.180;2023-04-03T11:40:06;11.20;84.30
36450;DHT22;22475;51.390;7.180;2023-04-03T11:42:37;11.20;83.80
36450;DHT22;22475;51.390;7.180;2023-04-03T11:45:24;11.30;83.70
36450;DHT22;22475;51.390;7.180;2023-04-03T11:47:53;11.20;83.80
36450;DHT22;22475;51.390;7.180;2023-04-03T11:50:39;11.30;83.80
36450;DHT22;22475;51.390;7.180;2023-04-03T11:53:34;11.30;83.60
36450;DHT22;22475;51.390;7.180;2023-04-03T11:56:26;11.30;83.10
36450;DHT22;22475;51.390;7.180;2023-04-03T11:59:15;11.30;82.90
36450;DHT22;22475;51.390;7.180;2023-04-03T12:01:45;11.30;82.50
36450;DHT22;22475;51.390;7.180;2023-04-03T12:04:14;11.30;82.50
36450;DHT22;22475;51.390;7.180;2023-04-03T12:06:50;11.30;82.50
36450;DHT22;22475;51.390;7.180;2023-04-03T12:09:33;11.30;82.00
36450;DHT22;22475;51.390;7.180;2023-04-03T12:12:26;11.30;81.50
36450;DHT22;22475;51.390;7.180;2023-04-03T12:14:54;11.30;81.30
36450;DHT22;22475;51.390;7.180;2023-04-03T12:17:23;11.30;81.50
36450;DHT22;22475;51.390;7.180;2023-04-03T12:19:53;11.30;82.00
36450;DHT22;22475;51.390;7.180;2023-04-03T12:22:21;11.30;82.30
36450;DHT22;22475;51.390;7.180;2023-04-03T12:24:49;11.30;82.20
36450;DHT22;22475;51.390;7.180;2023-04-03T12:27:28;11.30;82.00
36450;DHT22;22475;51.390;7.180;2023-04-03T12:30:04;11.30;81.80
36450;DHT22;22475;51.390;7.180;2023-04-03T12:32:46;11.30;82.10
36450;DHT22;22475;51.390;7.180;2023-04-03T12:35:24;11.30;81.90
36450;DHT22;22475;51.390;7.180;2023-04-03T12:38:16;11.40;81.70
36450;DHT22;22475;51.390;7.180;2023-04-03T12:40:49;11.30;81.70
36450;DHT22;22475;51.390;7.180;2023-04-03T12:43:31;11.40;81.70
36450;DHT22;22475;51.390;7.180;2023-04-03T12:46:03;11.30;81.20
36450;DHT22;22475;51.390;7.180;2023-04-03T12:48:32;11.30;81.10
36450;DHT22;22475;51.390;7.180;2023-04-03T12:51:00;11.40;81.00
36450;DHT22;22475;51.390;7.180;2023-04-03T12:53:29;11.30;80.60
36450;DHT22;22475;51.390;7.180;2023-04-03T12:56:19;11.30;80.80
36450;DHT22;22475;51.390;7.180;2023-04-03T12:58:49;11.30;81.50
36450;DHT22;22475;51.390;7.180;2023-04-03T13:01:18;11.30;80.90
36450;DHT22;22475;51.390;7.180;2023-04-03T13:03:48;11.40;82.20
36450;DHT22;22475;51.390;7.180;2023-04-03T13:06:19;11.40;81.70
36450;DHT22;22475;51.390;7.180;2023-04-03T13:08:50;11.40;81.70
36450;DHT22;22475;51.390;7.180;2023-04-03T13:11:18;11.40;81.80
36450;DHT22;22475;51.390;7.180;2023-04-03T13:13:58;11.40;81.90
36450;DHT22;22475;51.390;7.180;2023-04-03T13:16:25;11.40;82.10
36450;DHT22;22475;51.390;7.180;2023-04-03T13:18:53;11.40;82.20
36450;DHT22;22475;51.390;7.180;2023-04-03T13:21:22;11.40;82.20
36450;DHT22;22475;51.390;7.180;2023-04-03T13:23:52;11.40;81.80
36450;DHT22;22475;51.390;7.180;2023-04-03T13:26:22;11.40;81.20
36450;DHT22;22475;51.390;7.180;2023-04-03T13:28:50;11.40;80.90
36450;DHT22;22475;51.390;7.180;2023-04-03T13:31:25;11.40;81.10
36450;DHT22;22475;51.390;7.180;2023-04-03T13:33:56;11.40;80.90
36450;DHT22;22475;51.390;7.180;2023-04-03T13:36:27;11.40;81.00
36450;DHT22;22475;51.390;7.180;2023-04-03T13:39:01;11.50;81.00
36450;DHT22;22475;51.390;7.180;2023-04-03T13:41:31;11.40;80.70
36450;DHT22;22475;51.390;7.180;2023-04-03T13:44:17;11.50;80.60
36450;DHT22;22475;51.390;7.180;2023-04-03T13:46:46;11.40;80.20
36450;DHT22;22475;51.390;7.180;2023-04-03T13:49:21;11.50;80.30
36450;DHT22;22475;51.390;7.180;2023-04-03T13:51:48;11.50;80.00
36450;DHT22;22475;51.390;7.180;2023-04-03T13:54:21;11.50;80.00
36450;DHT22;22475;51.390;7.180;2023-04-03T13:56:53;11.50;79.70
36450;DHT22;22475;51.390;7.180;2023-04-03T13:59:23;11.40;79.30
36450;DHT22;22475;51.390;7.180;2023-04-03T14:01:54;11.50;79.40
36450;DHT22;22475;51.390;7.180;2023-04-03T14:04:23;11.50;79.10
36450;DHT22;22475;51.390;7.180;2023-04-03T14:06:51;11.50;79.30
36450;DHT22;22475;51.390;7.180;2023-04-03T14:09:19;11.50;80.30
36450;DHT22;22475;51.390;7.180;2023-04-03T14:11:47;11.50;79.50
36450;DHT22;22475;51.390;7.180;2023-04-03T14:14:16;11.50;79.70
36450;DHT22;22475;51.390;7.180;2023-04-03T14:16:46;11.50;79.60
36450;DHT22;22475;51.390;7.180;2023-04-03T14:19:22;11.50;80.00
36450;DHT22;22475;51.390;7.180;2023-04-03T14:21:50;11.50;80.10
36450;DHT22;22475;51.390;7.180;2023-04-03T14:24:18;11.60;80.20
36450;DHT22;22475;51.390;7.180;2023-04-03T14:26:45;11.60;80.10
36450;DHT22;22475;51.390;7.180;2023-04-03T14:29:13;11.60;80.00
36450;DHT22;22475;51.390;7.180;2023-04-03T14:31:41;11.60;80.00
36450;DHT22;22475;51.390;7.180;2023-04-03T14:34:09;11.60;80.00
36450;DHT22;22475;51.390;7.180;2023-04-03T14:36:39;11.60;80.10
36450;DHT22;22475;51.390;7.180;2023-04-03T14:39:07;11.60;80.50
36450;DHT22;22475;51.390;7.180;2023-04-03T14:41:35;11.60;80.90
36450;DHT22;22475;51.390;7.180;2023-04-03T14:44:02;11.60;81.10
36450;DHT22;22475;51.390;7.180;2023-04-03T14:46:32;11.60;81.20
36450;DHT22;22475;51.390;7.180;2023-04-03T14:48:59;11.60;81.30
36450;DHT22;22475;51.390;7.180;2023-04-03T14:51:26;11.60;81.60
36450;DHT22;22475;51.390;7.180;2023-04-03T14:53:54;11.60;81.90
36450;DHT22;22475;51.390;7.180;2023-04-03T14:56:23;11.70;81.80
36450;DHT22;22475;51.390;7.180;2023-04-03T14:58:55;11.60;81.60
36450;DHT22;22475;51.390;7.180;2023-04-03T15:01:22;11.60;81.30
36450;DHT22;22475;51.390;7.180;2023-04-03T15:03:49;11.70;81.30
36450;DHT22;22475;51.390;7.180;2023-04-03T15:06:16;11.70;81.20
36450;DHT22;22475;51.390;7.180;2023-04-03T15:08:43;11.70;80.70
36450;DHT22;22475;51.390;7.180;2023-04-03T15:11:14;11.70;80.20
36450;DHT22;22475;51.390;7.180;2023-04-03T15:13:41;11.60;80.30
36450;DHT22;22475;51.390;7.180;2023-04-03T15:16:16;11.60;80.50
36450;DHT22;22475;51.390;7.180;2023-04-03T15:18:45;11.60;80.50
36450;DHT22;22475;51.390;7.180;2023-04-03T15:21:13;11.60;80.20
36450;DHT22;22475;51.390;7.180;2023-04-03T15:23:40;11.70;80.10
36450;DHT22;22475;51.390;7.180;2023-04-03T15:26:07;11.60;80.00
36450;DHT22;22475;51.390;7.180;2023-04-03T15:28:37;11.60;79.70
36450;DHT22;22475;51.390;7.180;2023-04-03T15:31:04;11.60;79.40
36450;DHT22;22475;51.390;7.180;2023-04-03T15:33:32;11.70;79.50
36450;DHT22;22475;51.390;7.180;2023-04-03T15:35:59;11.60;79.40
36450;DHT22;22475;51.390;7.180;2023-04-03T15:38:26;11.60;79.30
36450;DHT22;22475;51.390;7.180;2023-04-03T15:40:54;11.60;79.00
36450;DHT22;22475;51.390;7.180;2023-04-03T15:43:21;11.70;79.00
36450;DHT22;22475;51.390;7.180;2023-04-03T15:45:50;11.60;79.10